Canaan, NH

2:05 AM EST on November 28, 2014 (GMT -0500)
Indian River School, W. Canaan, NH | Change Station
CLOSE
Current Station
Personal Weather Station
Location: Canaan, NH
Elevation: 881 ft
Nearby Weather Stations

Elev 881 ft 43.65 °N, 72.10 °W | Updated 10 minutes ago

Overcast
Overcast
25.2 °F
Feels Like 25 °F
N
0.0
Wind Variable Wind from NW
Gusts 0.0 mph

Today
High -- | Low -- °F
--% Chance of Precip.
Yesterday
High -- | Low -- °F
Precip. -- in
6:58 AM 4:13 PM
Waxing Crescent, 37% visible
Pressure 30.03 in
Visibility 3.0 miles
Clouds Mostly Cloudy 2600 ft
Overcast 3300 ft
Windchill 25 °F
Dew Point 23 °F
Humidity 90%
Rainfall 0.00 in
Snow Depth Not available.
UV 0.0 out of 12
Pollen .10 out of 12
Air Quality Not available.
Flu Activity Not available.
METAR KLEB 280653Z 30003KT 3SM -SN BKN026 OVC033 M03/M06 A3000 RMK AO2 SNB42 SLP168 P0000 T10281061

More Conditions Fewer Conditions

Pressure 30.03 in
Visibility 3.0 miles
Clouds Mostly Cloudy 2600 ft
Overcast 3300 ft
Windchill 25 °F
Dew Point 23 °F
Humidity 90%
Rainfall 0.00 in
Snow Depth Not available.
UV 0.0 out of 12
Pollen .10 out of 12
Air Quality Not available.
Flu Activity Not available.
METAR KLEB 280653Z 30003KT 3SM -SN BKN026 OVC033 M03/M06 A3000 RMK AO2 SNB42 SLP168 P0000 T10281061

More Conditions Fewer Conditions

10-Day Weather Forecast

Almanac

Astronomy

Nov. 28, 2014 Rise Set
Actual Time
Civil Twilight
Nautical Twilight
Astronomical Twilight
Moon
Length of Visible Light
Length of Day
Tomorrow will be .
, % of the Moon is Illuminated

Today's Extremes

State Highs State Lows

Community

WunderPhotos

Upload Photos

1,774,194 photos uploaded!

WunderBlogs® & News

Nearby

Air Quality

  Air Quality AQ Index Pollutant
Not available.

Snow Depth

Station Depth Elevation

Earthquake Activity

City Distance Mag. Time & Date
Minimum magnitude displayed is 2.5.

Coastal Water Temperatures

Place Temperature

Nearby Weather Stations